Time;durP1;ratioP1;P1;durP2;ratioP2;P2;SDS_P1;SDS_P2;PMS_P1;PMS_P2;Temp;Humidity;BMP_temperature;BMP_pressure;BME280_temperature;BME280_humidity;BME280_pressure;Samples;Min_cycle;Max_cycle;Signal;HPM_P1;HPM_P2
2021/12/01 00:00:12;;;;;;;;;4.00;4.00;;;;;20.96;49.07;99055.14;107083;1302;20201;-76
2021/12/01 00:03:00;;;;;;;;;5.00;5.00;;;;;20.95;49.14;99059.29;107426;1308;18330;-76
2021/12/01 00:05:27;;;;;;;;;4.00;4.00;;;;;20.96;49.12;99063.73;107058;1302;19370;-76
2021/12/01 00:07:54;;;;;;;;;5.00;4.67;;;;;20.96;49.11;99070.34;107054;1304;19614;-76
2021/12/01 00:10:22;;;;;;;;;4.00;4.00;;;;;20.97;49.17;99078.80;107052;1305;18016;-76
2021/12/01 00:12:49;;;;;;;;;5.00;4.33;;;;;20.98;49.02;99084.99;107024;1304;19988;-77
2021/12/01 00:15:16;;;;;;;;;5.00;5.00;;;;;20.98;49.14;99093.66;107119;1304;18545;-77
2021/12/01 00:17:44;;;;;;;;;5.00;5.00;;;;;20.98;49.07;99101.09;107042;1304;18270;-77
2021/12/01 00:20:11;;;;;;;;;5.67;5.00;;;;;21.00;49.11;99114.23;106989;1304;18667;-77
2021/12/01 00:22:38;;;;;;;;;8.33;5.67;;;;;20.99;49.09;99116.08;107050;1302;20068;-76
2021/12/01 00:25:05;;;;;;;;;4.00;4.00;;;;;20.98;49.08;99122.16;107003;1304;17990;-77
2021/12/01 00:27:33;;;;;;;;;4.33;4.33;;;;;20.98;49.12;99129.77;106993;1303;22741;-77
2021/12/01 00:30:00;;;;;;;;;5.00;4.67;;;;;21.00;49.21;99138.13;107026;1303;21248;-77
2021/12/01 00:32:28;;;;;;;;;5.00;5.00;;;;;20.99;49.13;99146.35;106985;1304;18131;-77
2021/12/01 00:34:58;;;;;;;;;4.00;4.00;;;;;21.00;49.20;99161.21;107293;1301;20548;-76
2021/12/01 00:37:25;;;;;;;;;4.00;4.00;;;;;21.00;49.14;99172.95;107303;1304;18547;-77
2021/12/01 00:39:52;;;;;;;;;5.00;4.67;;;;;21.00;49.15;99178.77;107305;1301;20541;-76
2021/12/01 00:42:20;;;;;;;;;4.33;4.33;;;;;21.00;49.15;99188.58;107340;1301;19319;-76
2021/12/01 00:44:54;;;;;;;;;4.33;4.33;;;;;20.99;49.06;99190.85;107290;1301;19070;-76
2021/12/01 00:47:23;;;;;;;;;4.67;4.00;;;;;21.00;49.16;99193.98;107357;1301;18190;-76
2021/12/01 00:49:50;;;;;;;;;5.50;5.00;;;;;20.99;49.03;99194.29;107341;1302;19590;-77
2021/12/01 00:52:17;;;;;;;;;4.00;4.00;;;;;21.00;49.10;99203.15;107380;1304;18688;-77
2021/12/01 00:54:45;;;;;;;;;4.67;4.67;;;;;21.00;49.01;99208.81;107323;1301;18283;-77
2021/12/01 00:57:12;;;;;;;;;4.67;4.33;;;;;21.01;48.99;99210.90;107350;1301;18613;-77
2021/12/01 00:59:39;;;;;;;;;4.00;4.00;;;;;21.01;49.17;99214.80;107390;1301;18645;-76
2021/12/01 01:02:07;;;;;;;;;4.67;4.00;;;;;20.99;49.20;99214.98;107321;1301;22019;-77
2021/12/01 01:04:35;;;;;;;;;5.00;5.00;;;;;21.00;48.97;99220.92;107362;1301;18667;-76
2021/12/01 01:07:02;;;;;;;;;5.00;4.00;;;;;20.99;49.10;99229.69;107366;1301;18579;-77
2021/12/01 01:09:31;;;;;;;;;5.00;5.00;;;;;21.00;48.98;99234.17;107414;1300;18132;-77
2021/12/01 01:17:36;;;;;;;;;5.00;5.00;;;;;21.00;49.03;99249.16;107343;1303;21037;-77
2021/12/01 01:20:03;;;;;;;;;6.00;5.67;;;;;20.98;49.11;99253.94;107349;1301;19762;-77
2021/12/01 01:22:31;;;;;;;;;4.00;4.00;;;;;20.99;48.89;99255.33;107388;1301;19386;-77
2021/12/01 01:24:58;;;;;;;;;6.00;5.00;;;;;21.00;48.83;99254.06;107386;1301;19287;-77
2021/12/01 01:27:25;;;;;;;;;5.00;5.00;;;;;21.00;48.94;99265.73;107360;1301;18948;-77
2021/12/01 01:29:53;;;;;;;;;4.50;4.50;;;;;20.99;48.95;99269.52;107287;1301;20136;-76
2021/12/01 01:32:20;;;;;;;;;5.00;5.00;;;;;20.99;48.98;99276.27;107300;1301;18873;-77
2021/12/01 01:34:47;;;;;;;;;4.00;4.00;;;;;21.00;48.95;99276.83;107300;1301;18872;-77
2021/12/01 01:37:15;;;;;;;;;5.00;4.00;;;;;21.00;48.93;99284.95;107374;1301;18535;-77
2021/12/01 01:39:42;;;;;;;;;4.33;4.00;;;;;21.01;48.84;99285.20;107314;1301;18940;-77
2021/12/01 01:42:09;;;;;;;;;2.00;2.00;;;;;21.01;48.87;99299.03;107281;1301;18834;-78
2021/12/01 01:44:37;;;;;;;;;4.00;4.00;;;;;20.99;48.82;99299.63;107292;1301;18608;-77
2021/12/01 01:47:04;;;;;;;;;5.00;5.00;;;;;21.00;48.79;99309.85;107493;1300;21983;-77
2021/12/01 01:49:43;;;;;;;;;5.00;5.00;;;;;21.00;48.83;99310.48;107332;1301;18908;-77
2021/12/01 01:52:10;;;;;;;;;3.33;3.33;;;;;21.00;48.84;99314.62;107451;1301;19346;-77
2021/12/01 01:54:38;;;;;;;;;4.00;4.00;;;;;20.99;48.79;99319.94;107382;1301;18133;-77
2021/12/01 01:57:05;;;;;;;;;4.00;4.00;;;;;20.97;48.78;99318.85;107310;1301;19760;-77
2021/12/01 01:59:32;;;;;;;;;4.00;2.67;;;;;20.99;48.86;99327.95;107271;1300;22066;-77
2021/12/01 02:02:01;;;;;;;;;4.00;4.00;;;;;20.99;48.78;99334.73;107480;1301;18538;-77
2021/12/01 02:04:32;;;;;;;;;5.00;4.00;;;;;20.98;48.73;99338.95;107239;1304;18779;-77
2021/12/01 02:07:00;;;;;;;;;5.00;4.33;;;;;20.98;48.94;99342.85;107451;1301;18588;-77
2021/12/01 02:09:27;;;;;;;;;5.67;5.00;;;;;20.98;48.87;99340.63;107435;1301;18253;-77
2021/12/01 02:11:54;;;;;;;;;4.67;4.67;;;;;20.98;48.77;99339.20;107374;1301;20353;-77
2021/12/01 02:14:22;;;;;;;;;4.33;4.33;;;;;20.97;48.66;99330.30;107362;1300;19068;-77
2021/12/01 02:16:50;;;;;;;;;5.00;4.00;;;;;20.96;48.88;99332.60;107173;1300;18284;-77
2021/12/01 02:19:17;;;;;;;;;2.00;2.00;;;;;20.96;48.67;99339.42;107333;1301;20544;-77
2021/12/01 02:21:44;;;;;;;;;4.00;4.00;;;;;20.97;48.78;99343.49;107404;1300;18528;-77
2021/12/01 02:24:12;;;;;;;;;5.00;4.00;;;;;20.97;48.75;99345.76;107435;1301;21751;-77
2021/12/01 02:26:39;;;;;;;;;4.00;4.00;;;;;20.96;48.82;99350.78;107337;1301;19157;-77
2021/12/01 02:29:06;;;;;;;;;4.67;4.67;;;;;20.96;48.92;99353.55;107370;1301;20105;-77
2021/12/01 02:31:36;;;;;;;;;5.00;4.00;;;;;20.96;48.71;99353.46;107329;1301;18152;-77
2021/12/01 02:34:03;;;;;;;;;4.00;4.00;;;;;20.96;48.79;99353.14;107406;1301;19213;-77
2021/12/01 02:36:31;;;;;;;;;5.00;4.00;;;;;20.96;48.76;99356.73;107376;1301;18476;-77
2021/12/01 02:38:58;;;;;;;;;4.00;4.00;;;;;20.96;48.70;99358.71;107251;1301;19550;-77
2021/12/01 02:41:25;;;;;;;;;4.00;4.00;;;;;20.96;48.78;99357.79;107290;1301;19022;-77
2021/12/01 02:43:52;;;;;;;;;4.00;4.00;;;;;20.96;48.80;99364.11;107252;1301;19111;-77
2021/12/01 02:46:20;;;;;;;;;3.33;3.33;;;;;20.96;48.74;99370.69;107364;1301;19667;-77
2021/12/01 02:48:47;;;;;;;;;4.00;4.00;;;;;20.96;48.67;99365.79;107363;1301;19055;-77
2021/12/01 02:51:15;;;;;;;;;2.00;2.00;;;;;20.96;48.58;99357.62;107352;1301;19714;-77
2021/12/01 02:53:43;;;;;;;;;4.00;4.00;;;;;20.97;48.71;99361.17;107362;1301;18795;-77
2021/12/01 02:56:11;;;;;;;;;4.00;2.67;;;;;20.97;48.69;99369.46;107344;1301;18995;-76
2021/12/01 02:58:40;;;;;;;;;2.67;2.67;;;;;20.96;48.66;99374.67;107396;1302;18796;-77
2021/12/01 03:01:07;;;;;;;;;4.00;4.00;;;;;20.97;48.72;99375.13;107288;1301;18074;-77
2021/12/01 03:03:34;;;;;;;;;5.00;4.67;;;;;20.95;48.55;99365.08;107358;1301;19120;-77
2021/12/01 03:06:02;;;;;;;;;5.00;4.00;;;;;20.95;48.58;99362.83;107336;1301;19322;-76
2021/12/01 03:08:29;;;;;;;;;3.33;3.33;;;;;20.95;48.67;99366.63;107243;1300;18375;-77
2021/12/01 03:10:57;;;;;;;;;4.00;4.00;;;;;20.95;48.56;99368.85;107224;1301;19618;-77
2021/12/01 03:13:24;;;;;;;;;4.33;4.00;;;;;20.95;48.60;99360.52;107292;1301;19307;-77
2021/12/01 03:15:51;;;;;;;;;3.33;3.33;;;;;20.96;48.56;99362.47;107327;1301;18414;-77
2021/12/01 03:18:18;;;;;;;;;4.00;4.00;;;;;20.96;48.61;99366.83;107274;1301;19459;-77
2021/12/01 03:20:46;;;;;;;;;2.00;2.00;;;;;20.93;48.67;99368.15;107325;1300;19270;-77
2021/12/01 03:23:13;;;;;;;;;4.00;4.00;;;;;20.95;48.52;99365.08;107343;1301;18076;-76
2021/12/01 03:25:41;;;;;;;;;4.00;4.00;;;;;20.96;48.65;99360.42;107482;1301;21760;-77
2021/12/01 03:28:08;;;;;;;;;4.00;2.67;;;;;20.95;48.60;99360.73;107270;1304;18580;-77
2021/12/01 03:30:37;;;;;;;;;2.67;2.67;;;;;20.95;48.53;99363.45;107360;1300;22012;-77
2021/12/01 03:33:04;;;;;;;;;3.33;3.33;;;;;20.95;48.48;99369.23;107458;1301;18846;-77
2021/12/01 03:35:31;;;;;;;;;2.00;2.00;;;;;20.94;48.55;99374.59;107335;1301;18601;-76
2021/12/01 03:37:59;;;;;;;;;4.00;4.00;;;;;20.94;48.48;99383.95;107280;1301;18116;-77
2021/12/01 03:40:26;;;;;;;;;2.00;2.00;;;;;20.95;48.50;99386.70;107489;1301;22551;-77
2021/12/01 03:42:53;;;;;;;;;4.00;4.00;;;;;20.93;48.43;99387.41;107500;1301;18497;-77
2021/12/01 03:45:21;;;;;;;;;3.33;3.33;;;;;20.94;48.47;99393.54;107276;1304;21393;-77
2021/12/01 03:47:48;;;;;;;;;4.00;4.00;;;;;20.94;48.41;99395.51;107315;1301;19092;-78
2021/12/01 03:50:15;;;;;;;;;3.33;2.67;;;;;20.92;48.50;99392.61;107348;1301;19086;-77
2021/12/01 03:52:43;;;;;;;;;2.00;2.00;;;;;20.93;48.48;99391.98;107494;1305;19274;-77
2021/12/01 03:55:10;;;;;;;;;2.67;2.67;;;;;20.93;48.40;99391.44;107258;1301;18957;-77
2021/12/01 03:57:37;;;;;;;;;4.00;4.00;;;;;20.93;48.45;99389.34;107286;1300;19056;-77
2021/12/01 04:00:04;;;;;;;;;2.00;2.00;;;;;20.92;48.47;99389.58;107377;1300;18917;-77
2021/12/01 04:02:32;;;;;;;;;5.00;3.33;;;;;20.92;48.44;99389.08;107482;1301;19127;-77
2021/12/01 04:04:59;;;;;;;;;2.00;2.00;;;;;20.93;48.40;99391.13;107278;1300;18601;-78
2021/12/01 04:07:26;;;;;;;;;4.00;4.00;;;;;20.92;48.37;99387.61;107435;1301;18110;-79
2021/12/01 04:09:54;;;;;;;;;4.00;4.00;;;;;20.92;48.51;99383.84;107485;1301;18852;-78
2021/12/01 04:12:21;;;;;;;;;5.00;4.00;;;;;20.92;48.51;99381.38;107412;1301;21930;-78
2021/12/01 04:14:48;;;;;;;;;2.67;2.67;;;;;20.94;48.39;99382.86;107296;1301;19014;-78
2021/12/01 04:17:16;;;;;;;;;5.00;5.00;;;;;20.94;48.33;99391.19;107277;1301;20345;-79
2021/12/01 04:19:43;;;;;;;;;5.00;4.67;;;;;20.93;48.45;99396.00;107329;1301;22229;-79
2021/12/01 04:22:10;;;;;;;;;2.00;2.00;;;;;20.95;48.31;99398.86;107344;1300;20043;-78
2021/12/01 04:24:37;;;;;;;;;2.00;2.00;;;;;20.93;48.48;99396.67;107288;1301;19471;-78
2021/12/01 04:27:05;;;;;;;;;4.00;4.00;;;;;20.94;48.43;99389.69;107225;1301;22467;-78
2021/12/01 04:29:32;;;;;;;;;3.00;3.00;;;;;20.94;48.28;99398.61;107323;1301;18541;-78
2021/12/01 04:32:00;;;;;;;;;4.00;4.00;;;;;20.93;48.43;99402.30;107286;1301;20412;-78
2021/12/01 04:34:27;;;;;;;;;4.33;4.00;;;;;20.91;48.46;99399.56;107112;1302;19414;-76
2021/12/01 04:36:54;;;;;;;;;4.00;4.00;;;;;20.92;48.33;99400.65;107363;1301;18137;-76
2021/12/01 04:39:22;;;;;;;;;2.00;2.00;;;;;20.93;48.27;99404.75;107366;1300;19113;-76
2021/12/01 04:41:52;;;;;;;;;4.00;2.00;;;;;20.92;48.26;99406.97;107374;1301;18470;-76
2021/12/01 04:44:19;;;;;;;;;2.00;2.00;;;;;20.92;48.15;99407.19;107331;1301;18897;-76
2021/12/01 04:46:48;;;;;;;;;4.50;4.00;;;;;20.91;48.31;99408.19;107498;1301;19484;-76
2021/12/01 04:49:15;;;;;;;;;2.67;2.67;;;;;20.91;48.17;99411.71;107429;1301;18856;-76
2021/12/01 04:51:42;;;;;;;;;4.00;4.00;;;;;20.90;48.26;99414.73;107383;1301;19764;-76
2021/12/01 04:54:10;;;;;;;;;2.00;2.00;;;;;20.92;48.18;99417.77;107391;1300;22371;-76
2021/12/01 04:56:37;;;;;;;;;5.00;4.00;;;;;20.91;48.23;99419.29;107307;1301;18491;-76
2021/12/01 04:59:04;;;;;;;;;5.00;4.00;;;;;20.91;48.33;99425.11;107495;1301;18147;-76
2021/12/01 05:01:31;;;;;;;;;4.00;2.00;;;;;20.92;48.29;99430.23;107509;1301;19300;-76
2021/12/01 05:03:59;;;;;;;;;4.00;4.00;;;;;20.91;48.31;99426.25;107395;1301;18717;-77
2021/12/01 05:06:26;;;;;;;;;3.00;3.00;;;;;20.91;48.18;99420.30;107249;1301;18397;-77
2021/12/01 05:08:53;;;;;;;;;4.00;4.00;;;;;20.91;48.24;99416.83;107384;1301;22184;-77
2021/12/01 05:11:21;;;;;;;;;4.00;4.00;;;;;20.92;48.12;99408.73;107342;1301;18915;-76
2021/12/01 05:13:48;;;;;;;;;3.33;3.33;;;;;20.90;48.18;99405.98;107366;1301;18554;-77
2021/12/01 05:16:16;;;;;;;;;4.00;4.00;;;;;20.92;48.21;99405.05;107390;1301;18879;-77
2021/12/01 05:18:43;;;;;;;;;4.50;4.00;;;;;20.91;48.13;99405.30;107217;1301;137289;-78
2021/12/01 05:21:10;;;;;;;;;2.00;2.00;;;;;20.92;48.20;99407.27;107270;1301;18232;-77
2021/12/01 05:23:38;;;;;;;;;2.00;2.00;;;;;20.92;48.06;99409.77;107350;1300;21456;-77
2021/12/01 05:26:06;;;;;;;;;4.00;4.00;;;;;20.91;48.06;99411.16;107285;1303;18495;-77
2021/12/01 05:28:33;;;;;;;;;5.00;4.00;;;;;20.91;48.05;99411.42;107330;1300;18177;-77
2021/12/01 05:31:01;;;;;;;;;4.00;2.00;;;;;20.91;48.07;99416.20;107307;1301;20474;-77
2021/12/01 05:33:28;;;;;;;;;4.00;4.00;;;;;20.90;48.23;99409.45;107425;1301;19385;-78
2021/12/01 05:35:55;;;;;;;;;4.00;4.00;;;;;20.90;48.14;99404.92;107435;1301;18226;-77
2021/12/01 05:38:23;;;;;;;;;2.67;2.67;;;;;20.91;48.22;99403.97;107516;1304;20326;-76
2021/12/01 05:40:50;;;;;;;;;3.33;3.33;;;;;20.89;48.20;99405.23;107566;1301;19161;-76
2021/12/01 05:43:18;;;;;;;;;4.00;4.00;;;;;20.89;48.10;99402.00;107362;1301;18176;-77
2021/12/01 05:45:45;;;;;;;;;4.00;4.00;;;;;20.90;47.99;99406.55;107399;1300;18863;-77
2021/12/01 05:48:12;;;;;;;;;3.33;2.67;;;;;20.91;47.89;99401.58;107397;1301;19152;-77
2021/12/01 05:50:40;;;;;;;;;2.00;2.00;;;;;20.91;48.14;99398.67;107472;1301;18137;-77
2021/12/01 05:53:07;;;;;;;;;2.00;2.00;;;;;20.91;48.06;99401.86;107424;1304;26447;-76
2021/12/01 05:55:34;;;;;;;;;3.33;2.00;;;;;20.90;48.08;99401.02;107428;1301;19159;-77
2021/12/01 05:58:02;;;;;;;;;4.00;4.00;;;;;20.91;47.97;99400.32;107358;1301;18751;-77
2021/12/01 06:00:29;;;;;;;;;2.00;2.00;;;;;20.89;48.12;99401.79;107320;1301;20106;-77
2021/12/01 06:02:56;;;;;;;;;2.00;2.00;;;;;20.92;48.03;99402.10;107333;1301;19446;-76
2021/12/01 06:05:24;;;;;;;;;2.67;2.67;;;;;20.91;48.07;99391.68;107276;1300;18123;-77
2021/12/01 06:07:51;;;;;;;;;2.00;2.00;;;;;20.93;48.36;99387.63;107344;1299;22889;-77
2021/12/01 06:10:19;;;;;;;;;2.00;2.00;;;;;20.94;48.34;99387.05;107429;1300;19049;-77
2021/12/01 06:12:46;;;;;;;;;2.00;2.00;;;;;20.94;48.34;99386.46;107430;1301;20360;-78
2021/12/01 06:15:13;;;;;;;;;4.00;4.00;;;;;20.94;48.48;99393.70;107336;1301;18866;-78
2021/12/01 06:17:41;;;;;;;;;2.00;2.00;;;;;20.94;48.46;99392.57;107362;1300;19092;-77
2021/12/01 06:20:08;;;;;;;;;2.00;2.00;;;;;20.95;48.40;99391.57;107464;1301;19309;-76
2021/12/01 06:22:35;;;;;;;;;4.00;2.00;;;;;20.98;48.30;99387.83;107205;1301;18848;-78
2021/12/01 06:25:03;;;;;;;;;3.33;2.00;;;;;21.00;48.39;99384.60;107290;1301;22235;-78
2021/12/01 06:27:30;;;;;;;;;4.00;4.00;;;;;20.99;48.22;99383.67;107394;1301;18337;-77
2021/12/01 06:29:57;;;;;;;;;4.00;4.00;;;;;20.99;48.36;99390.50;107352;1301;18886;-78
2021/12/01 06:32:24;;;;;;;;;4.00;4.00;;;;;20.97;48.32;99390.55;107184;1301;18543;-78
2021/12/01 06:34:52;;;;;;;;;2.00;2.00;;;;;20.96;48.41;99385.52;107379;1306;18155;-78
2021/12/01 06:37:19;;;;;;;;;4.00;4.00;;;;;20.97;48.36;99386.77;107335;1301;19832;-78
2021/12/01 06:39:47;;;;;;;;;4.00;4.00;;;;;20.97;48.41;99385.90;107341;1301;27394;-77
2021/12/01 06:42:14;;;;;;;;;3.33;3.33;;;;;20.93;48.41;99383.61;107312;1301;18945;-77
2021/12/01 06:44:41;;;;;;;;;4.33;4.00;;;;;20.95;48.32;99381.92;107325;1301;20409;-77
2021/12/01 06:47:08;;;;;;;;;4.00;4.00;;;;;20.95;48.27;99387.54;107178;1302;22518;-77
2021/12/01 06:49:36;;;;;;;;;2.00;2.00;;;;;20.95;48.31;99388.72;107370;1301;18301;-78
2021/12/01 06:52:03;;;;;;;;;2.00;2.00;;;;;20.93;48.11;99386.91;107431;1301;19461;-77
2021/12/01 06:54:30;;;;;;;;;4.00;4.00;;;;;20.94;48.27;99390.27;107443;1301;18579;-77
2021/12/01 06:56:58;;;;;;;;;2.00;2.00;;;;;20.94;48.15;99392.95;107289;1301;20184;-77
2021/12/01 06:59:25;;;;;;;;;4.00;4.00;;;;;20.97;48.24;99390.54;107226;1301;19194;-77
2021/12/01 07:01:52;;;;;;;;;2.67;2.67;;;;;20.95;48.22;99387.24;107467;1305;19353;-78
2021/12/01 07:04:20;;;;;;;;;5.00;4.33;;;;;20.92;48.19;99385.58;107409;1301;22163;-76
2021/12/01 07:06:47;;;;;;;;;4.00;2.00;;;;;20.95;48.26;99393.48;107387;1301;20339;-77
2021/12/01 07:09:19;;;;;;;;;4.00;4.00;;;;;20.95;48.20;99389.42;107309;1301;20152;-76
2021/12/01 07:11:47;;;;;;;;;4.00;4.00;;;;;20.93;48.27;99382.85;107353;1298;18993;-77
2021/12/01 07:14:15;;;;;;;;;3.33;3.33;;;;;20.94;48.17;99381.17;107457;1301;18829;-77
2021/12/01 07:16:42;;;;;;;;;2.67;2.00;;;;;20.95;48.12;99378.45;107329;1302;18467;-77
2021/12/01 07:19:09;;;;;;;;;4.00;4.00;;;;;20.95;48.10;99377.78;107399;1301;19130;-77
2021/12/01 07:21:37;;;;;;;;;4.00;4.00;;;;;20.94;48.17;99371.88;107381;1301;19006;-78
2021/12/01 07:24:04;;;;;;;;;4.00;4.00;;;;;20.95;48.11;99371.95;107297;1300;19923;-75
2021/12/01 07:26:32;;;;;;;;;3.33;2.00;;;;;20.95;48.04;99364.20;107375;1301;18643;-76
2021/12/01 07:28:59;;;;;;;;;5.00;4.00;;;;;20.97;48.10;99360.55;107251;1303;18888;-77
2021/12/01 07:31:26;;;;;;;;;4.33;4.00;;;;;20.96;47.95;99355.55;107434;1301;22395;-77
2021/12/01 07:33:54;;;;;;;;;4.00;4.00;;;;;20.98;48.21;99363.34;107359;1301;19008;-76
2021/12/01 07:36:21;;;;;;;;;5.00;4.67;;;;;21.05;48.39;99356.36;107365;1301;18824;-75
2021/12/01 07:38:50;;;;;;;;;8.00;6.00;;;;;21.06;48.68;99357.11;107305;1296;24486;-76
2021/12/01 07:41:17;;;;;;;;;3.33;3.33;;;;;21.10;48.67;99352.68;107483;1302;18994;-75
2021/12/01 07:43:45;;;;;;;;;6.00;5.00;;;;;21.14;48.79;99346.48;107393;1301;21722;-75
2021/12/01 07:46:12;;;;;;;;;6.00;6.00;;;;;21.17;49.17;99346.26;107436;1301;18591;-75
2021/12/01 07:48:39;;;;;;;;;5.00;5.00;;;;;21.17;49.41;99340.56;107496;1301;21583;-79
2021/12/01 07:51:06;;;;;;;;;9.00;8.00;;;;;21.19;49.30;99334.36;107240;1301;20481;-78
2021/12/01 07:53:34;;;;;;;;;5.00;5.00;;;;;21.21;49.74;99335.81;107370;1302;19153;-78
2021/12/01 07:56:03;;;;;;;;;9.00;7.00;;;;;21.25;49.83;99341.59;107331;1300;18261;-76
2021/12/01 07:58:30;;;;;;;;;9.00;9.00;;;;;21.26;49.98;99335.09;107368;1301;19171;-77
2021/12/01 08:00:57;;;;;;;;;7.33;7.33;;;;;21.26;50.09;99330.23;107404;1301;21584;-76
2021/12/01 08:03:25;;;;;;;;;6.00;6.00;;;;;21.24;49.91;99325.00;107458;1301;20807;-76
2021/12/01 08:05:52;;;;;;;;;8.00;8.00;;;;;21.23;49.97;99322.98;107353;1298;21774;-76
2021/12/01 08:08:20;;;;;;;;;10.00;8.33;;;;;21.22;50.06;99319.17;107345;1301;22514;-77
2021/12/01 08:10:47;;;;;;;;;9.00;8.00;;;;;21.20;50.07;99320.68;107311;1301;18302;-75
2021/12/01 08:13:14;;;;;;;;;8.00;7.33;;;;;21.17;50.27;99322.16;107326;1301;18742;-76
2021/12/01 08:15:42;;;;;;;;;8.00;8.00;;;;;21.17;50.05;99321.16;107290;1301;20740;-78
2021/12/01 08:18:09;;;;;;;;;8.50;8.00;;;;;21.18;50.18;99320.95;107406;1301;18257;-74
2021/12/01 08:20:38;;;;;;;;;8.33;8.00;;;;;21.25;50.49;99311.54;107451;1301;20645;-77
2021/12/01 08:23:05;;;;;;;;;10.00;8.00;;;;;21.26;50.89;99309.02;107476;1301;20513;-76
2021/12/01 08:25:33;;;;;;;;;9.00;9.00;;;;;21.26;51.33;99299.66;107477;1301;18289;-77
2021/12/01 08:28:02;;;;;;;;;9.00;9.00;;;;;21.29;51.33;99296.23;107349;1301;19849;-75
2021/12/01 08:30:29;;;;;;;;;9.00;8.00;;;;;21.32;52.85;99294.55;107462;1302;19259;-76
2021/12/01 08:32:56;;;;;;;;;9.00;9.00;;;;;21.36;52.75;99290.36;107435;1301;19317;-77
2021/12/01 08:35:24;;;;;;;;;9.00;9.00;;;;;21.37;52.71;99287.63;107409;1300;22789;-78
2021/12/01 08:37:51;;;;;;;;;10.00;9.67;;;;;21.35;53.95;99282.48;107333;1302;19611;-77
2021/12/01 08:40:19;;;;;;;;;10.00;10.00;;;;;21.30;53.72;99276.73;107315;1301;27098;-76
2021/12/01 08:42:46;;;;;;;;;9.00;9.00;;;;;21.31;53.41;99279.81;107298;1300;20606;-77
2021/12/01 08:45:13;;;;;;;;;9.00;9.00;;;;;21.27;53.41;99277.57;107325;1301;18840;-78
2021/12/01 08:47:40;;;;;;;;;8.67;8.00;;;;;21.29;53.05;99274.73;107300;1301;18529;-78
2021/12/01 08:50:08;;;;;;;;;9.00;8.00;;;;;21.33;53.05;99268.61;107252;1301;19263;-79
2021/12/01 08:52:35;;;;;;;;;10.67;9.67;;;;;21.37;52.71;99273.28;107472;1304;19432;-78
2021/12/01 08:55:02;;;;;;;;;9.00;9.00;;;;;21.39;52.73;99266.77;107273;1301;19142;-77
2021/12/01 08:57:30;;;;;;;;;10.00;9.00;;;;;21.38;52.57;99264.05;107365;1301;20527;-78
2021/12/01 08:59:57;;;;;;;;;9.33;9.00;;;;;21.37;52.51;99256.56;107466;1301;21178;-78
2021/12/01 09:02:24;;;;;;;;;10.00;9.50;;;;;21.38;52.56;99259.58;107279;1301;19295;-78
2021/12/01 09:04:52;;;;;;;;;12.67;12.00;;;;;21.37;52.37;99259.75;107247;1301;18858;-78
2021/12/01 09:07:19;;;;;;;;;11.33;10.67;;;;;21.37;52.23;99258.02;107205;1300;19557;-79
2021/12/01 09:09:46;;;;;;;;;13.00;12.00;;;;;21.35;52.45;99251.91;107267;1301;19680;-79
2021/12/01 09:12:14;;;;;;;;;13.00;12.00;;;;;21.35;52.22;99245.67;107382;1298;19675;-78
2021/12/01 09:14:42;;;;;;;;;13.00;12.00;;;;;21.38;52.24;99241.04;107445;1301;19711;-78
2021/12/01 09:17:10;;;;;;;;;12.00;12.00;;;;;21.44;52.12;99236.67;107467;1301;18704;-75
2021/12/01 09:19:37;;;;;;;;;13.67;13.00;;;;;21.45;52.11;99231.31;107396;1300;19838;-77
2021/12/01 09:22:04;;;;;;;;;109.67;84.67;;;;;21.45;51.58;99228.20;107309;1301;18932;-76
2021/12/01 09:24:32;;;;;;;;;89.33;64.33;;;;;21.43;51.39;99225.16;107383;1301;19144;-75
2021/12/01 09:27:00;;;;;;;;;207.67;151.00;;;;;21.43;51.08;99217.74;107377;1301;18782;-76
2021/12/01 09:29:27;;;;;;;;;223.25;158.25;;;;;21.42;51.24;99218.38;107331;1301;19491;-76
2021/12/01 09:31:54;;;;;;;;;229.75;171.75;;;;;21.43;51.01;99210.48;107428;1299;22468;-77
2021/12/01 09:34:22;;;;;;;;;203.50;156.75;;;;;21.42;50.89;99213.85;107391;1301;21554;-77
2021/12/01 09:36:49;;;;;;;;;231.75;171.00;;;;;21.43;50.89;99213.00;107402;1301;19304;-77
2021/12/01 09:39:16;;;;;;;;;218.50;159.25;;;;;21.43;51.12;99207.98;107371;1301;18883;-76
2021/12/01 09:41:44;;;;;;;;;188.00;142.75;;;;;21.48;51.36;99201.11;107398;1301;21602;-79
2021/12/01 09:44:11;;;;;;;;;167.00;126.00;;;;;21.50;51.71;99197.16;107386;1296;24234;-76
2021/12/01 09:46:38;;;;;;;;;163.00;123.00;;;;;21.52;52.22;99195.77;107398;1301;19485;-77
2021/12/01 09:49:06;;;;;;;;;155.75;113.25;;;;;21.51;51.78;99194.09;107311;1301;20906;-77
2021/12/01 09:51:33;;;;;;;;;126.33;97.33;;;;;21.47;52.32;99192.60;107460;1301;19157;-77
2021/12/01 09:54:02;;;;;;;;;126.50;102.00;;;;;21.46;51.98;99181.86;107450;1301;20222;-78
2021/12/01 09:56:29;;;;;;;;;123.33;95.67;;;;;21.45;52.19;99179.31;107472;1298;18856;-76
2021/12/01 09:58:56;;;;;;;;;98.67;73.33;;;;;21.41;51.85;99173.40;107475;1305;19596;-77
2021/12/01 10:01:24;;;;;;;;;113.00;87.00;;;;;21.38;51.35;99165.34;107396;1301;19085;-79
2021/12/01 10:03:51;;;;;;;;;107.67;85.33;;;;;21.36;51.60;99165.12;107290;1301;19000;-77
2021/12/01 10:06:18;;;;;;;;;96.00;71.00;;;;;21.34;51.24;99164.88;107383;1301;19412;-78
2021/12/01 10:08:46;;;;;;;;;103.00;74.67;;;;;21.32;51.26;99159.80;107469;1301;18442;-78
2021/12/01 10:11:13;;;;;;;;;91.50;67.00;;;;;21.29;51.46;99147.71;107468;1301;18890;-77
2021/12/01 10:13:40;;;;;;;;;88.00;67.33;;;;;21.28;51.22;99143.20;107467;1304;19327;-77
2021/12/01 10:16:08;;;;;;;;;84.00;63.50;;;;;21.26;51.33;99141.41;107395;1301;19466;-76
2021/12/01 10:18:35;;;;;;;;;87.00;61.00;;;;;21.24;51.17;99139.00;107408;1301;18985;-77
2021/12/01 10:21:04;;;;;;;;;84.00;61.00;;;;;21.22;51.25;99140.56;107253;1301;19007;-77
2021/12/01 10:23:31;;;;;;;;;79.00;60.00;;;;;21.21;51.03;99135.82;107317;1300;18363;-77
2021/12/01 10:25:59;;;;;;;;;80.00;58.67;;;;;21.19;50.94;99132.45;107373;1304;19473;-77
2021/12/01 10:28:26;;;;;;;;;74.67;57.00;;;;;21.18;51.16;99119.77;107341;1301;18877;-77
2021/12/01 10:30:53;;;;;;;;;71.00;55.00;;;;;21.17;50.80;99117.66;107396;1300;19120;-77
2021/12/01 10:33:21;;;;;;;;;76.00;55.33;;;;;21.22;50.70;99114.23;107282;1301;18911;-77
2021/12/01 10:35:48;;;;;;;;;74.33;52.00;;;;;21.27;50.44;99109.17;107212;1301;21183;-76
2021/12/01 10:38:15;;;;;;;;;60.00;47.00;;;;;21.31;50.56;99108.30;107421;1301;19925;-76
2021/12/01 10:40:42;;;;;;;;;68.67;49.67;;;;;21.33;50.78;99098.84;107435;1301;20381;-77
2021/12/01 10:43:10;;;;;;;;;69.33;50.67;;;;;21.37;50.76;99089.65;107265;1301;18937;-77
2021/12/01 10:45:38;;;;;;;;;68.00;50.33;;;;;21.34;50.47;99086.18;107390;1301;18615;-77
2021/12/01 10:48:05;;;;;;;;;65.33;47.00;;;;;21.28;50.65;99075.08;107280;1301;19226;-77
2021/12/01 10:50:32;;;;;;;;;56.33;44.67;;;;;21.26;50.54;99062.54;107264;1301;21345;-75
2021/12/01 10:53:00;;;;;;;;;59.33;45.67;;;;;21.22;50.57;99059.45;107328;1304;19315;-76
2021/12/01 10:55:27;;;;;;;;;56.67;44.00;;;;;21.22;50.38;99053.45;107324;1301;18946;-76
2021/12/01 10:57:57;;;;;;;;;61.00;46.00;;;;;21.20;50.51;99046.98;107361;1301;18957;-77
2021/12/01 11:00:24;;;;;;;;;52.00;42.67;;;;;21.19;50.32;99044.77;107323;1301;18536;-77
2021/12/01 11:02:52;;;;;;;;;57.33;43.67;;;;;21.18;50.17;99036.77;107458;1301;19303;-77
2021/12/01 11:05:20;;;;;;;;;48.00;38.67;;;;;21.17;50.43;99036.30;107268;1301;19255;-76
2021/12/01 11:07:47;;;;;;;;;52.00;40.67;;;;;21.18;50.24;99029.17;107444;1298;20749;-77
2021/12/01 11:10:14;;;;;;;;;47.67;37.33;;;;;21.20;49.94;99029.41;107405;1301;19444;-77
2021/12/01 11:12:42;;;;;;;;;47.33;37.00;;;;;21.21;50.10;99029.20;107313;1301;18952;-77
2021/12/01 11:15:09;;;;;;;;;46.33;37.33;;;;;21.20;50.16;99023.12;107298;1300;20574;-77
2021/12/01 11:17:36;;;;;;;;;44.00;35.00;;;;;21.18;50.08;99022.98;107476;1301;18819;-76
2021/12/01 11:20:03;;;;;;;;;38.67;36.33;;;;;21.16;50.03;99018.92;107361;1300;20570;-77
2021/12/01 11:22:34;;;;;;;;;45.33;38.00;;;;;21.15;49.91;99018.67;107359;1301;21613;-75
2021/12/01 11:25:01;;;;;;;;;40.67;36.00;;;;;21.14;50.02;99014.95;107309;1301;19400;-76
2021/12/01 11:27:28;;;;;;;;;37.50;33.00;;;;;21.14;49.91;99006.54;107402;1301;21082;-76